This is the latest recevied weather packets stored in our database for station/object DG8SF-13. If no packets are shown the sender has not sent any weather packets the latest 10 day(s).
| Time | Temp. | Humidity | Pressure | Rain* | Wind** | Luminosity | Snow |
|---|---|---|---|---|---|---|---|
| 1788018110 | 23.33° C | 55% | 1014.9 hPa | 0 mm | - | - | - |
| 1788017798 | 23.89° C | 53% | 1014.9 hPa | 0 mm | - | - | - |
| 1788017477 | 23.89° C | 55% | 1015 hPa | 0 mm | - | - | - |
| 1788017149 | 23.89° C | 56% | 1014.9 hPa | 0 mm | - | - | - |
| 1788016817 | 23.33° C | 54% | 1015 hPa | 0 mm | - | - | - |
| 1788016501 | 23.33° C | 55% | 1015 hPa | 0 mm | - | - | - |
| 1788016181 | 23.33° C | 54% | 1015 hPa | 0 mm | - | - | - |
| 1788015866 | 23.89° C | 54% | 1015 hPa | 0 mm | - | - | - |
| 1788015517 | 23.89° C | 55% | 1014.9 hPa | 0 mm | - | - | - |
| 1788015194 | 23.89° C | 53% | 1014.9 hPa | 0 mm | - | - | - |
| 1788014882 | 25° C | 52% | 1014.9 hPa | 0 mm | - | - | - |
| 1788014520 | 25° C | 52% | 1014.9 hPa | 0 mm | - | - | - |
| 1788014198 | 24.44° C | 52% | 1014.9 hPa | 0 mm | - | - | - |
| 1788013886 | 25° C | 51% | 1014.9 hPa | 0 mm | - | - | - |
| 1788013575 | 25.56° C | 49% | 1014.9 hPa | 0 mm | - | - | - |
| 1788013261 | 25° C | 51% | 1014.9 hPa | 0 mm | - | - | - |
| 1788012937 | 23.89° C | 52% | 1015.1 hPa | 0 mm | - | - | - |
| 1788012626 | 23.89° C | 53% | 1015.2 hPa | 0 mm | - | - | - |
| 1788012303 | 24.44° C | 51% | 1015.2 hPa | 0 mm | - | - | - |
| 1788011988 | 25.56° C | 50% | 1015.1 hPa | 0 mm | - | - | - |
| 1788011679 | 26.11° C | 47% | 1015.1 hPa | 0 mm | - | - | - |
| 1788011342 | 25° C | 51% | 1015.1 hPa | 0 mm | - | - | - |
| 1788011032 | 24.44° C | 53% | 1015.2 hPa | 0 mm | - | - | - |
| 1788010705 | 24.44° C | 53% | 1015.3 hPa | 0 mm | - | - | - |
| 1788010388 | 24.44° C | 54% | 1015.4 hPa | 0 mm | - | - | - |
* Rain latest hour (hover to see other rain measurements)
** Current wind speed in m/s (hover to see current wind gust speed)